Time;durP1;ratioP1;P1;durP2;ratioP2;P2;SDS_P1;SDS_P2;PMS_P1;PMS_P2;Temp;Humidity;BMP_temperature;BMP_pressure;BME280_temperature;BME280_humidity;BME280_pressure;Samples;Min_cycle;Max_cycle;Signal;HPM_P1;HPM_P2
2023/09/01 00:00:58;;;;;;;4.22;2.53;;;;;;;20.86;41.25;94055.34;5010179;28;20033;-77
2023/09/01 00:03:24;;;;;;;4.40;2.22;;;;;;;20.90;41.62;94074.31;5009692;28;20085;-77
2023/09/01 00:05:49;;;;;;;5.68;2.47;;;;;;;20.87;42.29;94072.38;5016506;28;20041;-77
2023/09/01 00:08:15;;;;;;;8.10;1.95;;;;;;;20.81;42.00;94080.00;5011766;28;20561;-77
2023/09/01 00:10:40;;;;;;;4.20;1.90;;;;;;;20.73;42.74;94062.16;5008895;28;20053;-77
2023/09/01 00:13:05;;;;;;;4.18;1.85;;;;;;;20.57;43.48;94077.81;5008983;28;20498;-77
2023/09/01 00:15:31;;;;;;;3.65;1.65;;;;;;;20.56;42.74;94087.84;5008508;28;20042;-78
2023/09/01 00:17:57;;;;;;;6.63;2.30;;;;;;;20.33;43.27;94057.50;5008692;28;20037;-76
2023/09/01 00:20:23;;;;;;;4.90;1.95;;;;;;;20.41;43.16;94069.94;5008315;28;20387;-77
2023/09/01 00:22:48;;;;;;;9.80;2.25;;;;;;;20.39;42.97;94085.72;5006069;28;20137;-77
2023/09/01 00:25:13;;;;;;;3.13;1.80;;;;;;;20.32;42.89;94072.16;5010316;28;20443;-75
2023/09/01 00:27:39;;;;;;;7.15;2.38;;;;;;;20.32;43.54;94085.66;5007515;28;20029;-77
2023/09/01 00:30:05;;;;;;;7.25;2.17;;;;;;;20.32;43.10;94074.84;5008842;28;20045;-77
2023/09/01 00:32:30;;;;;;;6.60;2.00;;;;;;;20.19;43.47;94081.59;5008375;28;20374;-77
2023/09/01 00:34:57;;;;;;;4.35;2.47;;;;;;;20.12;44.10;94078.81;5008696;28;20114;-77
2023/09/01 00:37:23;;;;;;;3.05;1.67;;;;;;;20.09;44.40;94082.25;5007622;28;20060;-77
2023/09/01 00:39:48;;;;;;;4.68;1.90;;;;;;;20.07;44.87;94084.53;5016382;28;20337;-78
2023/09/01 00:42:13;;;;;;;5.15;2.47;;;;;;;19.89;45.14;94067.31;5009195;28;20769;-76
2023/09/01 00:44:39;;;;;;;5.15;2.35;;;;;;;19.98;44.51;94092.13;5008098;28;20061;-77
2023/09/01 00:47:05;;;;;;;3.70;2.10;;;;;;;19.85;45.02;94077.31;5009871;28;20037;-77
2023/09/01 00:49:32;;;;;;;6.43;2.42;;;;;;;19.96;44.92;94089.78;5007746;28;20026;-77
2023/09/01 00:51:58;;;;;;;3.35;1.80;;;;;;;19.85;45.24;94080.00;5011942;28;20136;-76
2023/09/01 00:54:23;;;;;;;4.13;2.17;;;;;;;19.80;45.31;94078.38;5016904;28;20030;-77
2023/09/01 00:56:53;;;;;;;3.47;1.45;;;;;;;19.76;45.82;94085.63;5008978;28;20739;-76
2023/09/01 00:59:19;;;;;;;3.67;2.15;;;;;;;19.75;45.69;94079.47;5007876;28;20073;-77
2023/09/01 01:01:44;;;;;;;8.85;2.67;;;;;;;19.71;45.40;94083.25;5007917;28;20046;-77
2023/09/01 01:04:11;;;;;;;4.03;1.95;;;;;;;19.72;45.57;94079.41;5008361;28;20098;-77
2023/09/01 01:06:58;;;;;;;6.05;2.28;;;;;;;19.69;45.44;94090.94;5022882;28;20050;-77
2023/09/01 01:09:29;;;;;;;6.00;2.10;;;;;;;19.69;45.60;94086.34;5009520;28;20040;-78
2023/09/01 01:12:08;;;;;;;4.38;2.10;;;;;;;19.53;45.67;94071.44;5008965;28;20783;-76
2023/09/01 01:14:46;;;;;;;6.35;2.40;;;;;;;19.59;45.97;94084.25;5009286;28;20486;-76
2023/09/01 01:17:15;;;;;;;5.47;2.28;;;;;;;19.52;46.14;94081.44;5006864;28;20401;-76
2023/09/01 01:19:51;;;;;;;5.30;2.38;;;;;;;19.54;46.10;94084.56;5008528;28;20333;-76
2023/09/01 01:22:42;;;;;;;4.40;2.13;;;;;;;19.50;46.15;94083.75;5007636;28;20029;-76
2023/09/01 01:25:10;;;;;;;16.45;3.63;;;;;;;19.43;46.61;94080.13;5010051;28;20619;-77
2023/09/01 01:27:36;;;;;;;8.88;2.20;;;;;;;19.32;46.67;94066.47;5009343;28;20169;-78
2023/09/01 01:30:02;;;;;;;4.65;2.35;;;;;;;19.33;46.91;94078.81;5010585;28;20045;-77
2023/09/01 01:32:28;;;;;;;3.80;2.80;;;;;;;19.24;46.91;94065.59;5006065;28;20519;-77
2023/09/01 01:35:10;;;;;;;11.38;2.30;;;;;;;19.31;47.37;94070.31;5007777;28;20045;-77
2023/09/01 01:37:45;;;;;;;5.15;2.65;;;;;;;19.27;47.37;94081.03;5007706;28;20037;-77
2023/09/01 01:40:12;;;;;;;4.85;2.45;;;;;;;19.23;47.58;94084.81;5008224;28;20401;-76
2023/09/01 01:42:39;;;;;;;8.48;3.38;;;;;;;19.29;47.86;94083.38;5009633;28;21027;-77
2023/09/01 01:45:08;;;;;;;5.10;2.85;;;;;;;19.27;47.83;94075.63;5008516;28;20674;-76
2023/09/01 01:47:33;;;;;;;6.45;3.15;;;;;;;19.16;47.96;94084.72;5008331;28;20084;-77
2023/09/01 01:49:59;;;;;;;7.07;2.80;;;;;;;19.10;48.27;94086.16;5005651;28;20687;-77
2023/09/01 01:52:24;;;;;;;5.93;2.47;;;;;;;18.96;48.57;94078.59;5008751;28;20048;-77
2023/09/01 01:54:50;;;;;;;5.57;2.70;;;;;;;18.89;48.50;94073.84;5007128;28;20021;-77
2023/09/01 01:57:16;;;;;;;4.93;2.75;;;;;;;18.82;49.09;94075.66;5007242;28;20037;-77
2023/09/01 01:59:42;;;;;;;3.95;2.00;;;;;;;18.78;49.22;94078.28;5008032;28;20717;-76
2023/09/01 02:02:07;;;;;;;5.05;3.17;;;;;;;18.82;49.26;94078.34;5006917;28;20057;-76
2023/09/01 02:04:33;;;;;;;7.55;2.78;;;;;;;18.70;49.35;94055.03;5005805;28;21605;-77
2023/09/01 02:06:59;;;;;;;5.22;2.72;;;;;;;18.80;49.43;94073.31;5008372;28;20060;-76
2023/09/01 02:09:25;;;;;;;8.75;3.15;;;;;;;18.62;49.56;94061.44;5007477;28;20149;-77
2023/09/01 02:11:51;;;;;;;4.28;3.03;;;;;;;18.52;49.78;94070.09;5008386;28;20686;-77
2023/09/01 02:14:16;;;;;;;3.83;2.58;;;;;;;18.59;50.00;94086.34;5006047;28;20385;-77
2023/09/01 02:16:42;;;;;;;6.18;3.22;;;;;;;18.51;50.02;94082.00;5008917;28;20041;-76
2023/09/01 02:19:11;;;;;;;5.55;3.00;;;;;;;18.43;50.29;94074.91;5008186;28;21225;-76
2023/09/01 02:21:37;;;;;;;5.93;2.78;;;;;;;18.33;50.15;94072.78;5009455;28;20036;-77
2023/09/01 02:24:02;;;;;;;3.65;2.53;;;;;;;18.44;50.40;94082.63;5006184;28;20404;-77
2023/09/01 02:26:28;;;;;;;7.95;3.63;;;;;;;18.28;50.14;94051.53;5008670;28;20069;-77
2023/09/01 02:28:53;;;;;;;5.97;2.65;;;;;;;18.45;50.35;94083.41;5007173;28;20462;-76
2023/09/01 02:31:19;;;;;;;4.82;2.35;;;;;;;18.33;50.60;94080.88;5007979;28;20037;-76
2023/09/01 02:33:45;;;;;;;5.45;2.63;;;;;;;18.32;50.45;94092.78;5008614;28;20022;-76
2023/09/01 02:36:24;;;;;;;4.20;2.38;;;;;;;18.22;51.06;94085.25;5006298;28;20623;-76
2023/09/01 02:38:50;;;;;;;7.13;3.50;;;;;;;18.22;51.06;94096.03;5011151;28;20046;-76
2023/09/01 02:41:15;;;;;;;5.47;2.78;;;;;;;18.06;51.42;94081.84;5011332;28;20045;-77
2023/09/01 02:43:41;;;;;;;4.57;2.63;;;;;;;18.11;51.21;94092.34;5009824;28;20049;-77
2023/09/01 02:46:07;;;;;;;6.13;2.72;;;;;;;18.16;51.05;94081.28;5009567;28;20153;-75
2023/09/01 02:48:32;;;;;;;5.72;2.97;;;;;;;18.07;51.22;94078.03;5010462;28;20048;-76
2023/09/01 02:50:58;;;;;;;6.93;3.17;;;;;;;17.97;51.33;94066.69;5009867;28;20126;-77
2023/09/01 02:53:24;;;;;;;5.85;2.78;;;;;;;17.99;51.58;94077.88;5010194;28;20072;-76
2023/09/01 02:55:49;;;;;;;6.57;3.97;;;;;;;17.93;51.68;94071.22;5010478;28;20156;-76
2023/09/01 02:58:14;;;;;;;6.68;3.60;;;;;;;17.87;51.52;94056.47;5009883;28;20030;-77
2023/09/01 03:00:40;;;;;;;3.85;2.20;;;;;;;17.93;51.75;94071.22;5011079;28;20125;-76
2023/09/01 03:03:06;;;;;;;3.95;2.50;;;;;;;17.98;51.38;94081.72;5009052;28;20034;-77
2023/09/01 03:05:31;;;;;;;5.03;2.53;;;;;;;17.89;51.42;94078.41;5009667;28;20065;-76
2023/09/01 03:07:58;;;;;;;3.83;2.22;;;;;;;17.86;51.54;94064.88;5009275;28;20053;-77
2023/09/01 03:10:23;;;;;;;5.82;2.30;;;;;;;17.92;51.19;94080.41;5008995;28;20037;-79
2023/09/01 03:12:49;;;;;;;7.10;2.55;;;;;;;17.81;51.13;94067.84;5010812;28;20030;-77
2023/09/01 03:15:15;;;;;;;5.00;2.65;;;;;;;17.70;51.46;94058.78;5013504;28;20022;-77
2023/09/01 03:17:40;;;;;;;5.20;2.55;;;;;;;17.76;51.51;94093.09;5009513;28;20046;-77
2023/09/01 03:20:09;;;;;;;3.13;1.98;;;;;;;17.77;51.52;94096.59;5010985;28;20041;-77
2023/09/01 03:22:35;;;;;;;5.63;2.85;;;;;;;17.73;51.70;94101.88;5016997;28;20037;-77
2023/09/01 03:25:01;;;;;;;4.93;2.70;;;;;;;17.55;51.63;94071.91;5010403;28;20085;-76
2023/09/01 03:27:26;;;;;;;7.30;3.08;;;;;;;17.59;51.86;94086.22;5009299;28;20317;-77
2023/09/01 03:29:55;;;;;;;10.32;2.75;;;;;;;17.45;51.81;94063.63;5018846;28;20619;-77
2023/09/01 03:32:20;;;;;;;8.93;2.63;;;;;;;17.66;51.84;94093.66;5010856;28;20037;-77
2023/09/01 03:34:46;;;;;;;5.47;3.20;;;;;;;17.63;51.78;94099.75;5011999;28;20037;-78
2023/09/01 03:37:12;;;;;;;5.13;2.95;;;;;;;17.68;51.69;94099.47;5010968;28;20025;-77
2023/09/01 03:39:37;;;;;;;6.82;2.72;;;;;;;17.58;51.93;94090.03;5009766;28;20320;-77
2023/09/01 03:42:03;;;;;;;5.82;2.75;;;;;;;17.61;51.92;94097.41;5011699;28;20034;-77
2023/09/01 03:44:29;;;;;;;6.05;2.53;;;;;;;17.39;52.17;94081.13;5011300;28;20382;-76
2023/09/01 03:46:55;;;;;;;7.07;2.90;;;;;;;17.36;52.38;94081.81;5010050;28;20087;-76
2023/09/01 03:49:20;;;;;;;4.40;2.95;;;;;;;17.39;52.29;94076.53;5009837;28;20064;-77
2023/09/01 03:51:46;;;;;;;7.95;2.72;;;;;;;17.41;52.49;94089.63;5011863;28;20488;-76
2023/09/01 03:54:11;;;;;;;5.78;2.45;;;;;;;17.42;52.37;94086.59;5009218;28;20053;-77
2023/09/01 03:56:37;;;;;;;5.53;2.40;;;;;;;17.54;52.55;94091.88;5009811;28;20128;-76
2023/09/01 03:59:02;;;;;;;3.47;2.10;;;;;;;17.48;52.31;94104.00;5008716;28;20517;-77
2023/09/01 04:01:28;;;;;;;4.35;2.40;;;;;;;17.41;52.76;94103.06;5009867;28;20088;-77
2023/09/01 04:03:53;;;;;;;7.32;2.90;;;;;;;17.34;53.22;94100.22;5009957;28;20037;-76
2023/09/01 04:06:18;;;;;;;7.05;2.80;;;;;;;17.47;52.97;94107.03;5009491;28;20048;-77
2023/09/01 04:08:44;;;;;;;4.20;2.53;;;;;;;17.47;52.93;94105.13;5007723;28;20049;-78
2023/09/01 04:11:09;;;;;;;4.65;2.30;;;;;;;17.52;53.32;94106.78;5009829;28;20037;-76
2023/09/01 04:13:35;;;;;;;4.93;2.28;;;;;;;17.52;53.42;94112.94;5009671;28;20052;-77
2023/09/01 04:16:02;;;;;;;4.85;2.78;;;;;;;17.52;53.48;94114.84;5008835;28;20072;-76
2023/09/01 04:18:27;;;;;;;4.63;2.30;;;;;;;17.50;53.65;94109.06;5008771;28;20038;-76
2023/09/01 04:20:54;;;;;;;3.78;2.17;;;;;;;17.55;53.56;94117.59;5011021;28;20382;-76
2023/09/01 04:23:20;;;;;;;4.25;1.98;;;;;;;17.55;53.88;94114.16;5009896;28;20072;-77
2023/09/01 04:25:46;;;;;;;6.53;3.08;;;;;;;17.59;53.81;94123.09;5006974;28;20112;-76
2023/09/01 04:28:13;;;;;;;5.43;2.60;;;;;;;17.61;54.05;94116.22;5016663;28;20305;-76
2023/09/01 04:30:38;;;;;;;10.65;2.33;;;;;;;17.63;54.06;94115.88;5010246;28;20156;-77
2023/09/01 04:33:05;;;;;;;5.13;2.75;;;;;;;17.75;53.89;94125.72;5007504;28;20723;-77
2023/09/01 04:35:31;;;;;;;5.80;2.53;;;;;;;17.76;54.48;94125.38;5008420;28;20063;-78
2023/09/01 04:37:56;;;;;;;4.88;2.17;;;;;;;17.86;53.96;94119.47;5009295;28;20490;-77
2023/09/01 04:40:22;;;;;;;7.00;3.28;;;;;;;17.86;54.02;94124.84;5007979;28;20564;-77
2023/09/01 04:42:47;;;;;;;7.72;3.33;;;;;;;18.00;53.18;94117.09;5008099;28;20057;-77
2023/09/01 04:45:13;;;;;;;6.68;3.67;;;;;;;17.98;53.34;94116.69;5009076;28;20049;-77
2023/09/01 04:47:39;;;;;;;8.93;3.20;;;;;;;17.98;52.69;94108.63;5007820;28;20025;-76
2023/09/01 04:50:04;;;;;;;7.75;4.45;;;;;;;18.19;52.53;94124.41;5009258;28;20375;-77
2023/09/01 04:52:30;;;;;;;9.50;4.57;;;;;;;18.32;52.35;94139.31;5008239;28;20141;-76
2023/09/01 04:54:55;;;;;;;6.28;3.50;;;;;;;18.25;52.62;94136.47;5008611;28;20075;-77
2023/09/01 04:57:20;;;;;;;7.57;4.00;;;;;;;18.35;52.61;94144.00;5008715;28;20040;-77
2023/09/01 04:59:48;;;;;;;7.05;4.70;;;;;;;18.35;52.80;94143.22;5009040;28;20038;-77
2023/09/01 05:02:13;;;;;;;6.95;4.03;;;;;;;18.41;52.50;94149.88;5008317;28;20076;-77
2023/09/01 05:04:39;;;;;;;8.38;3.90;;;;;;;18.40;52.49;94141.03;5007590;28;20049;-76
2023/09/01 05:07:04;;;;;;;10.05;4.45;;;;;;;18.60;51.62;94166.03;5010201;28;20286;-77
2023/09/01 05:09:29;;;;;;;13.23;4.15;;;;;;;18.62;51.55;94165.69;5007206;28;20041;-77
2023/09/01 05:11:55;;;;;;;15.10;4.10;;;;;;;18.54;51.74;94153.97;5007660;28;20129;-76
2023/09/01 05:14:20;;;;;;;9.40;3.78;;;;;;;18.67;51.33;94166.19;5009280;28;20456;-77
2023/09/01 05:16:45;;;;;;;10.95;3.65;;;;;;;18.67;51.62;94166.19;5010719;28;20040;-77
2023/09/01 05:19:11;;;;;;;8.65;3.28;;;;;;;18.77;51.32;94165.63;5005536;28;20389;-76
2023/09/01 05:21:36;;;;;;;5.40;2.80;;;;;;;18.76;51.51;94160.63;5011425;28;20124;-76
2023/09/01 05:24:02;;;;;;;18.88;4.47;;;;;;;18.86;51.16;94158.13;5006415;28;20025;-77
2023/09/01 05:26:27;;;;;;;15.98;3.88;;;;;;;18.84;51.24;94152.31;5008084;28;20152;-76
2023/09/01 05:28:52;;;;;;;6.18;4.18;;;;;;;19.00;51.05;94167.59;5010077;28;20123;-79
2023/09/01 05:31:18;;;;;;;14.20;5.63;;;;;;;18.87;51.56;94148.88;5006843;28;20504;-77
2023/09/01 05:33:43;;;;;;;9.70;4.03;;;;;;;18.91;51.86;94162.44;5016007;28;20026;-76
2023/09/01 05:36:09;;;;;;;8.05;4.22;;;;;;;18.99;51.39;94176.81;5021950;28;20124;-76
2023/09/01 05:38:34;;;;;;;12.52;3.38;;;;;;;19.11;50.67;94160.50;5007583;28;20457;-76
2023/09/01 05:41:05;;;;;;;6.95;3.80;;;;;;;19.10;50.60;94161.63;5007948;28;20465;-77
2023/09/01 05:43:31;;;;;;;11.52;5.10;;;;;;;19.04;50.53;94168.44;5006108;28;20072;-77
2023/09/01 05:45:57;;;;;;;7.90;4.03;;;;;;;19.02;51.46;94168.03;5008349;28;20029;-77
2023/09/01 05:48:23;;;;;;;11.65;3.92;;;;;;;19.00;50.94;94167.59;5006786;28;20046;-77
2023/09/01 05:50:48;;;;;;;8.68;3.40;;;;;;;19.16;51.12;94179.06;5007051;28;20532;-76
2023/09/01 05:53:13;;;;;;;10.43;3.67;;;;;;;18.99;51.34;94157.94;5007229;28;20029;-77
2023/09/01 05:55:39;;;;;;;6.55;4.05;;;;;;;19.12;51.22;94187.06;5010095;28;20049;-77
2023/09/01 05:58:04;;;;;;;6.95;3.80;;;;;;;19.15;50.72;94172.13;5008253;28;20416;-76
2023/09/01 06:00:30;;;;;;;9.02;4.03;;;;;;;19.16;51.22;94181.75;5004681;28;20072;-76
2023/09/01 06:02:56;;;;;;;12.60;4.20;;;;;;;19.15;51.62;94174.81;5008695;28;20079;-76
2023/09/01 06:05:21;;;;;;;9.48;4.10;;;;;;;19.24;50.98;94168.03;5006474;28;20060;-76
2023/09/01 06:07:47;;;;;;;9.60;3.72;;;;;;;19.30;50.39;94166.63;5018292;28;20045;-76
2023/09/01 06:10:12;;;;;;;13.70;4.55;;;;;;;19.48;50.97;94174.25;5006797;28;20027;-78
2023/09/01 06:12:38;;;;;;;7.40;3.30;;;;;;;19.45;50.82;94170.38;5007315;28;20029;-77
2023/09/01 06:15:05;;;;;;;7.03;3.55;;;;;;;19.65;50.38;94184.56;5013813;28;20030;-78
2023/09/01 06:17:30;;;;;;;7.57;3.20;;;;;;;19.67;50.12;94166.84;5010140;28;20367;-78
2023/09/01 06:19:56;;;;;;;9.60;4.32;;;;;;;19.41;49.84;94134.41;5011388;28;20034;-78
2023/09/01 06:22:21;;;;;;;11.05;4.25;;;;;;;19.77;49.69;94186.28;5011009;28;20050;-78
2023/09/01 06:24:47;;;;;;;11.38;4.18;;;;;;;19.69;49.72;94182.69;5012678;28;20044;-78
2023/09/01 06:27:13;;;;;;;9.27;4.07;;;;;;;19.73;50.11;94188.91;5010370;28;20060;-78
2023/09/01 06:29:38;;;;;;;9.48;2.85;;;;;;;19.69;49.70;94169.97;5009073;28;20049;-78
2023/09/01 06:32:04;;;;;;;5.38;3.13;;;;;;;19.77;49.81;94172.78;5012319;28;20330;-77
2023/09/01 06:34:30;;;;;;;8.63;2.92;;;;;;;19.93;49.88;94186.91;5011733;28;20022;-76
2023/09/01 06:36:56;;;;;;;13.90;3.50;;;;;;;19.81;49.90;94181.69;5021035;28;20500;-77
2023/09/01 06:39:22;;;;;;;11.48;3.45;;;;;;;19.73;49.93;94162.72;5011348;28;20038;-78
2023/09/01 06:41:47;;;;;;;6.05;3.13;;;;;;;20.04;49.53;94204.06;5011950;28;20045;-78
2023/09/01 06:44:12;;;;;;;6.43;2.72;;;;;;;19.85;49.44;94169.06;5010374;28;20057;-77
2023/09/01 06:46:38;;;;;;;12.63;3.30;;;;;;;19.98;49.21;94202.81;5012778;28;20106;-78
2023/09/01 06:49:03;;;;;;;6.53;2.88;;;;;;;19.82;50.07;94212.94;5010630;28;20440;-78
2023/09/01 06:51:29;;;;;;;5.22;3.38;;;;;;;19.82;49.68;94196.75;5011552;28;20068;-77
2023/09/01 06:53:55;;;;;;;5.80;2.97;;;;;;;20.06;49.78;94207.16;5009735;28;20509;-78
2023/09/01 06:56:21;;;;;;;6.40;4.03;;;;;;;19.97;50.09;94198.53;5010803;28;20060;-79
2023/09/01 06:58:46;;;;;;;8.35;3.53;;;;;;;20.10;49.26;94211.47;5010547;28;20179;-78
2023/09/01 07:01:12;;;;;;;11.20;3.30;;;;;;;20.03;50.12;94192.47;5012004;28;20030;-77
2023/09/01 07:03:38;;;;;;;5.80;3.78;;;;;;;19.98;50.02;94216.31;5013253;28;20037;-77
2023/09/01 07:06:04;;;;;;;8.35;3.30;;;;;;;20.21;49.78;94210.88;5019264;28;20044;-77
2023/09/01 07:08:29;;;;;;;9.27;3.28;;;;;;;20.13;50.01;94208.06;5010399;28;20383;-77
2023/09/01 07:11:03;;;;;;;10.38;3.75;;;;;;;20.20;49.92;94218.19;5017848;28;20390;-78
2023/09/01 07:13:29;;;;;;;9.25;3.38;;;;;;;20.38;49.48;94216.53;5009789;28;20080;-77
2023/09/01 07:15:55;;;;;;;6.82;3.42;;;;;;;20.15;49.63;94208.47;5010868;28;20074;-77
2023/09/01 07:18:22;;;;;;;5.75;2.65;;;;;;;20.17;49.72;94205.44;5010441;28;20042;-77
2023/09/01 07:20:48;;;;;;;5.40;2.97;;;;;;;20.11;49.30;94204.94;5010197;28;20065;-77
2023/09/01 07:23:14;;;;;;;8.68;3.95;;;;;;;20.11;50.23;94223.03;5017816;28;20473;-78
2023/09/01 07:25:40;;;;;;;7.22;3.47;;;;;;;20.33;50.05;94222.25;5007118;28;20684;-78
2023/09/01 07:28:06;;;;;;;7.80;3.97;;;;;;;20.43;49.76;94221.63;5010331;28;20401;-77
2023/09/01 07:30:32;;;;;;;7.95;3.45;;;;;;;20.39;50.03;94214.59;5016939;28;20579;-77
2023/09/01 07:32:58;;;;;;;6.22;3.58;;;;;;;20.58;48.65;94217.94;5011949;28;20119;-77
2023/09/01 07:35:24;;;;;;;6.57;3.45;;;;;;;20.64;48.74;94217.63;5012413;28;20048;-78
2023/09/01 07:37:49;;;;;;;4.03;2.95;;;;;;;20.60;47.91;94210.25;5010004;28;20038;-78
2023/09/01 07:40:15;;;;;;;9.43;3.05;;;;;;;20.55;48.17;94221.41;5013880;28;20525;-77
2023/09/01 07:42:40;;;;;;;6.15;3.55;;;;;;;20.62;49.20;94217.22;5009178;28;20036;-77
2023/09/01 07:45:06;;;;;;;4.13;2.95;;;;;;;20.56;48.56;94204.03;5010863;28;20037;-78
2023/09/01 07:47:33;;;;;;;6.88;3.35;;;;;;;20.80;48.66;94210.13;5009475;28;20500;-77
2023/09/01 07:49:58;;;;;;;7.38;3.78;;;;;;;21.05;49.17;94218.56;5011662;28;20092;-77
2023/09/01 07:52:25;;;;;;;8.18;4.45;;;;;;;21.04;47.69;94212.38;5016594;28;20021;-78
2023/09/01 07:54:50;;;;;;;9.52;3.40;;;;;;;21.10;46.99;94215.53;5012389;28;20035;-78
2023/09/01 07:57:16;;;;;;;5.82;3.80;;;;;;;20.98;47.40;94219.25;5010769;28;20033;-78
2023/09/01 07:59:42;;;;;;;9.40;4.00;;;;;;;21.06;47.76;94214.72;5008148;28;20041;-76
2023/09/01 08:02:08;;;;;;;5.38;4.18;;;;;;;20.90;47.09;94207.56;5010075;28;20104;-78
2023/09/01 08:04:33;;;;;;;8.13;3.25;;;;;;;21.10;47.11;94213.59;5008456;28;20306;-78
2023/09/01 08:06:59;;;;;;;6.07;4.30;;;;;;;21.19;47.50;94214.06;5009932;28;20017;-78
2023/09/01 08:09:25;;;;;;;6.47;3.90;;;;;;;21.30;45.45;94220.38;5012681;28;20051;-78
2023/09/01 08:11:51;;;;;;;7.93;4.88;;;;;;;21.32;44.65;94215.38;5008402;28;20085;-77
2023/09/01 08:14:16;;;;;;;4.97;4.18;;;;;;;21.35;44.61;94201.13;5009471;28;20628;-77
2023/09/01 08:16:42;;;;;;;7.75;5.18;;;;;;;21.40;44.83;94208.91;5009637;28;20030;-77
2023/09/01 08:19:08;;;;;;;13.68;4.95;;;;;;;21.55;45.19;94220.66;5007049;28;20117;-79
2023/09/01 08:21:33;;;;;;;4.60;4.18;;;;;;;21.62;45.61;94211.81;5010688;28;20045;-78
2023/09/01 08:23:59;;;;;;;5.63;4.10;;;;;;;21.40;45.00;94208.91;5008068;28;20079;-78
2023/09/01 08:26:25;;;;;;;7.38;4.60;;;;;;;21.53;44.79;94219.44;5017238;28;20106;-78
2023/09/01 08:28:50;;;;;;;8.55;5.05;;;;;;;21.65;44.29;94202.97;5009143;28;20382;-78
2023/09/01 08:31:16;;;;;;;11.93;5.32;;;;;;;21.64;44.28;94212.22;5006563;28;20033;-78
2023/09/01 08:33:41;;;;;;;12.98;5.85;;;;;;;21.54;44.95;94202.84;5011363;28;20025;-78
2023/09/01 08:36:07;;;;;;;8.55;5.88;;;;;;;21.35;44.53;94198.41;5008531;28;20473;-77
2023/09/01 08:38:32;;;;;;;8.95;5.38;;;;;;;21.61;44.75;94194.78;5011782;28;20446;-78
2023/09/01 08:41:05;;;;;;;6.35;5.22;;;;;;;21.88;43.60;94211.66;5008596;28;20060;-78
2023/09/01 08:43:36;;;;;;;6.50;5.57;;;;;;;22.01;42.99;94204.78;5009209;28;20496;-78
2023/09/01 08:46:03;;;;;;;5.05;4.63;;;;;;;21.96;43.65;94202.44;5024394;28;20038;-79
2023/09/01 08:48:30;;;;;;;6.97;5.45;;;;;;;21.75;43.67;94207.69;5009582;28;20041;-77
2023/09/01 08:50:55;;;;;;;5.40;4.70;;;;;;;22.10;43.19;94212.59;5008783;28;20596;-78
2023/09/01 08:53:21;;;;;;;12.35;5.90;;;;;;;21.95;42.27;94189.28;5007396;28;20046;-78
2023/09/01 08:55:48;;;;;;;6.07;5.13;;;;;;;21.91;42.34;94183.81;5009616;28;20061;-77
2023/09/01 08:58:13;;;;;;;6.07;5.45;;;;;;;22.32;41.68;94200.78;5008534;28;20026;-78
2023/09/01 09:00:39;;;;;;;10.35;5.50;;;;;;;22.08;42.19;94190.53;5008214;28;20084;-79
2023/09/01 09:03:05;;;;;;;7.53;5.60;;;;;;;21.75;42.99;94194.94;5009169;28;20080;-78
2023/09/01 09:05:33;;;;;;;6.07;5.47;;;;;;;22.05;42.46;94205.59;5007356;28;20120;-78
2023/09/01 09:08:01;;;;;;;6.07;5.50;;;;;;;21.98;42.56;94178.47;5010035;28;20162;-78
2023/09/01 09:10:42;;;;;;;8.50;4.93;;;;;;;22.35;41.73;94199.22;5009764;28;20888;-78
2023/09/01 09:13:24;;;;;;;6.20;5.60;;;;;;;22.50;41.48;94195.44;5008602;28;20022;-79
2023/09/01 09:16:15;;;;;;;5.60;5.05;;;;;;;22.59;40.45;94190.44;5016592;28;20038;-79
2023/09/01 09:18:43;;;;;;;11.95;5.93;;;;;;;22.57;41.71;94198.22;5008530;28;20042;-78
2023/09/01 09:21:25;;;;;;;7.00;5.60;;;;;;;22.58;40.61;94197.06;5008147;28;20044;-78
2023/09/01 09:23:51;;;;;;;7.35;5.75;;;;;;;22.59;40.96;94201.28;5015592;28;20083;-77
2023/09/01 09:26:16;;;;;;;5.35;4.85;;;;;;;22.65;41.37;94189.72;5007636;28;20030;-78
2023/09/01 09:28:44;;;;;;;13.32;5.85;;;;;;;22.57;40.90;94176.53;5006967;28;20034;-77
2023/09/01 09:31:09;;;;;;;6.15;5.63;;;;;;;22.69;40.17;94189.72;5008678;28;20056;-77
2023/09/01 09:33:38;;;;;;;8.68;5.63;;;;;;;22.72;40.70;94173.50;5006705;28;20050;-78
2023/09/01 09:36:03;;;;;;;9.27;5.32;;;;;;;22.50;40.53;94179.19;5007316;28;20038;-78
2023/09/01 09:38:49;;;;;;;6.65;4.88;;;;;;;22.76;40.44;94183.56;5009132;28;20056;-77
2023/09/01 09:41:15;;;;;;;10.73;5.40;;;;;;;22.87;40.21;94173.56;5005883;28;20037;-78
2023/09/01 09:43:50;;;;;;;7.03;6.13;;;;;;;22.67;40.13;94171.16;5007669;28;20108;-77
2023/09/01 09:46:16;;;;;;;8.93;4.97;;;;;;;22.87;39.89;94174.34;5007871;28;20036;-78
2023/09/01 09:48:42;;;;;;;8.30;5.40;;;;;;;22.95;40.70;94164.28;5008812;28;20029;-78
2023/09/01 09:51:10;;;;;;;6.38;4.15;;;;;;;23.07;39.90;94172.84;5007460;28;20034;-78
2023/09/01 09:53:36;;;;;;;8.50;4.97;;;;;;;23.04;38.91;94162.78;5006104;28;20041;-78
2023/09/01 09:56:18;;;;;;;5.30;4.57;;;;;;;23.09;40.52;94151.56;5008526;28;20038;-78
2023/09/01 09:58:45;;;;;;;5.30;4.13;;;;;;;23.05;39.51;94150.00;5006151;28;20047;-78
2023/09/01 10:01:22;;;;;;;6.93;4.55;;;;;;;22.84;40.08;94137.13;5008239;28;20025;-78
2023/09/01 10:03:47;;;;;;;7.32;4.07;;;;;;;22.78;39.61;94148.72;5023603;28;20473;-78
2023/09/01 10:06:16;;;;;;;8.70;4.20;;;;;;;22.61;39.11;94155.63;5006462;28;20125;-77
2023/09/01 10:08:44;;;;;;;6.72;5.57;;;;;;;22.63;39.22;94164.16;5015927;28;20584;-77
2023/09/01 10:11:10;;;;;;;6.18;4.28;;;;;;;22.80;39.08;94168.88;5012615;28;20041;-76
2023/09/01 10:13:38;;;;;;;7.35;4.22;;;;;;;22.66;38.72;94166.88;5006217;28;20038;-78
2023/09/01 10:16:05;;;;;;;7.53;4.28;;;;;;;22.77;39.54;94155.31;5006786;28;20025;-78
2023/09/01 10:18:30;;;;;;;8.15;3.47;;;;;;;22.85;38.38;94154.94;5006880;28;20048;-78
2023/09/01 10:20:56;;;;;;;4.70;4.20;;;;;;;22.94;38.76;94157.31;5007564;28;20402;-78
2023/09/01 10:23:21;;;;;;;5.57;3.97;;;;;;;22.87;37.68;94151.88;5006356;28;20037;-77
2023/09/01 10:26:12;;;;;;;9.82;3.88;;;;;;;22.96;37.99;94171.28;5006500;28;20045;-76
2023/09/01 10:29:01;;;;;;;6.65;3.58;;;;;;;23.05;38.67;94169.75;5009049;28;20083;-76
2023/09/01 10:31:28;;;;;;;4.72;3.42;;;;;;;22.97;39.30;94176.34;5006806;28;20034;-77
2023/09/01 10:34:12;;;;;;;7.82;4.20;;;;;;;23.13;39.94;94160.47;5006736;28;20044;-77
2023/09/01 10:36:40;;;;;;;6.25;4.30;;;;;;;23.21;38.16;94161.28;5014853;28;20048;-77
2023/09/01 10:39:23;;;;;;;5.72;3.53;;;;;;;23.37;37.81;94152.75;5008463;28;20766;-77
2023/09/01 10:42:03;;;;;;;8.32;3.75;;;;;;;23.48;38.19;94159.75;5005452;28;20530;-76
2023/09/01 10:44:48;;;;;;;5.95;3.65;;;;;;;23.38;37.61;94152.38;5005500;28;20034;-76
2023/09/01 10:47:32;;;;;;;5.72;3.35;;;;;;;23.37;37.58;94163.59;4996627;28;20125;-77
2023/09/01 10:50:04;;;;;;;5.90;3.92;;;;;;;23.32;37.80;94162.06;5005366;28;20084;-76
2023/09/01 10:52:31;;;;;;;7.13;3.75;;;;;;;23.32;37.41;94161.31;5006273;28;20032;-77
2023/09/01 10:54:59;;;;;;;4.75;4.20;;;;;;;23.41;37.65;94148.13;5007063;28;20402;-77
2023/09/01 10:57:45;;;;;;;3.92;3.25;;;;;;;23.55;36.93;94153.59;5008224;28;20034;-76
2023/09/01 11:00:34;;;;;;;4.68;3.58;;;;;;;23.54;36.76;94149.31;5023491;28;20033;-76
2023/09/01 11:03:33;;;;;;;4.40;3.28;;;;;;;23.53;36.87;94150.47;5006785;28;20042;-78
2023/09/01 11:06:05;;;;;;;4.22;3.22;;;;;;;23.55;35.88;94148.16;5010351;28;20041;-78
2023/09/01 11:08:32;;;;;;;5.07;3.03;;;;;;;23.72;35.70;94143.88;5016351;28;20042;-80
2023/09/01 11:11:09;;;;;;;6.90;2.92;;;;;;;23.76;35.53;94136.53;5009977;28;20037;-77
2023/09/01 11:13:35;;;;;;;3.90;2.15;;;;;;;23.75;35.69;94135.75;5011044;28;20033;-77
2023/09/01 11:16:08;;;;;;;6.25;3.30;;;;;;;23.91;36.79;94138.81;5010528;28;20029;-77
2023/09/01 11:18:33;;;;;;;3.88;3.25;;;;;;;23.97;36.25;94131.84;5026501;28;20048;-77
2023/09/01 11:21:00;;;;;;;5.38;3.20;;;;;;;23.95;36.55;94108.97;5008893;28;20421;-77
2023/09/01 11:23:27;;;;;;;8.65;3.13;;;;;;;24.11;38.28;94113.94;5012130;28;20043;-78
2023/09/01 11:25:56;;;;;;;3.88;2.70;;;;;;;24.20;35.90;94115.13;5009797;28;20080;-77
2023/09/01 11:28:25;;;;;;;5.07;3.10;;;;;;;23.90;34.79;94099.28;5009811;28;20116;-77
2023/09/01 11:31:01;;;;;;;4.32;3.03;;;;;;;23.99;34.98;94107.78;5010790;28;20057;-77
2023/09/01 11:33:34;;;;;;;6.43;3.20;;;;;;;23.92;34.71;94102.34;5010694;28;20055;-77